sensor_id;sensor_type;location;lat;lon;timestamp;temperature;humidity
4399;DHT22;2213;49.720;7.296;2022-12-18T00:01:41;-9.80;99.90
4399;DHT22;2213;49.720;7.296;2022-12-18T00:04:20;-9.70;99.90
4399;DHT22;2213;49.720;7.296;2022-12-18T00:06:51;-9.80;99.90
4399;DHT22;2213;49.720;7.296;2022-12-18T00:09:24;-9.80;99.90
4399;DHT22;2213;49.720;7.296;2022-12-18T00:12:08;-9.70;99.90
4399;DHT22;2213;49.720;7.296;2022-12-18T00:14:41;-9.60;99.90
4399;DHT22;2213;49.720;7.296;2022-12-18T00:17:12;-9.60;99.90
4399;DHT22;2213;49.720;7.296;2022-12-18T00:19:43;-9.70;99.90
4399;DHT22;2213;49.720;7.296;2022-12-18T00:22:13;-9.70;99.90
4399;DHT22;2213;49.720;7.296;2022-12-18T00:24:44;-9.70;99.90
4399;DHT22;2213;49.720;7.296;2022-12-18T00:27:15;-9.70;99.90
4399;DHT22;2213;49.720;7.296;2022-12-18T00:29:46;-9.70;99.90
4399;DHT22;2213;49.720;7.296;2022-12-18T00:32:17;-9.70;99.90
4399;DHT22;2213;49.720;7.296;2022-12-18T00:34:47;-9.70;99.90
4399;DHT22;2213;49.720;7.296;2022-12-18T00:37:19;-9.70;99.90
4399;DHT22;2213;49.720;7.296;2022-12-18T00:39:50;-9.70;99.90
4399;DHT22;2213;49.720;7.296;2022-12-18T00:42:20;-9.60;99.90
4399;DHT22;2213;49.720;7.296;2022-12-18T00:45:07;-9.70;99.90
4399;DHT22;2213;49.720;7.296;2022-12-18T00:47:40;-9.70;99.90
4399;DHT22;2213;49.720;7.296;2022-12-18T00:50:10;-9.70;99.90
4399;DHT22;2213;49.720;7.296;2022-12-18T00:52:41;-9.70;99.90
4399;DHT22;2213;49.720;7.296;2022-12-18T00:55:12;-9.70;99.90
4399;DHT22;2213;49.720;7.296;2022-12-18T00:57:45;-9.80;99.90
4399;DHT22;2213;49.720;7.296;2022-12-18T01:00:17;-9.80;99.90
4399;DHT22;2213;49.720;7.296;2022-12-18T01:02:46;-9.80;99.90
4399;DHT22;2213;49.720;7.296;2022-12-18T01:05:16;-9.80;99.90
4399;DHT22;2213;49.720;7.296;2022-12-18T01:07:47;-9.80;99.90
4399;DHT22;2213;49.720;7.296;2022-12-18T01:10:16;-9.80;99.90
4399;DHT22;2213;49.720;7.296;2022-12-18T01:12:47;-9.90;99.90
4399;DHT22;2213;49.720;7.296;2022-12-18T01:15:17;-9.90;99.90
4399;DHT22;2213;49.720;7.296;2022-12-18T01:17:47;-9.80;99.90
4399;DHT22;2213;49.720;7.296;2022-12-18T01:20:16;-9.90;99.90
4399;DHT22;2213;49.720;7.296;2022-12-18T01:22:46;-9.80;99.90
4399;DHT22;2213;49.720;7.296;2022-12-18T01:25:17;-9.80;99.90
4399;DHT22;2213;49.720;7.296;2022-12-18T01:27:48;-9.60;99.90
4399;DHT22;2213;49.720;7.296;2022-12-18T01:30:19;-9.70;99.90
4399;DHT22;2213;49.720;7.296;2022-12-18T01:32:49;-9.70;99.90
4399;DHT22;2213;49.720;7.296;2022-12-18T01:35:20;-9.70;99.90
4399;DHT22;2213;49.720;7.296;2022-12-18T01:37:54;-9.80;99.90
4399;DHT22;2213;49.720;7.296;2022-12-18T01:40:24;-9.70;99.90
4399;DHT22;2213;49.720;7.296;2022-12-18T01:42:55;-9.80;99.90
4399;DHT22;2213;49.720;7.296;2022-12-18T01:45:27;-9.90;99.90
4399;DHT22;2213;49.720;7.296;2022-12-18T01:48:00;-9.80;99.90
4399;DHT22;2213;49.720;7.296;2022-12-18T01:50:33;-9.80;99.90
4399;DHT22;2213;49.720;7.296;2022-12-18T01:53:10;-9.80;99.90
4399;DHT22;2213;49.720;7.296;2022-12-18T01:55:45;-9.90;99.90
4399;DHT22;2213;49.720;7.296;2022-12-18T01:58:19;-9.90;99.90
4399;DHT22;2213;49.720;7.296;2022-12-18T02:00:54;-9.90;99.90
4399;DHT22;2213;49.720;7.296;2022-12-18T02:03:27;-9.80;99.90
4399;DHT22;2213;49.720;7.296;2022-12-18T02:06:03;-10.00;99.90
4399;DHT22;2213;49.720;7.296;2022-12-18T02:08:44;-9.90;99.90
4399;DHT22;2213;49.720;7.296;2022-12-18T02:11:28;-9.90;99.90
4399;DHT22;2213;49.720;7.296;2022-12-18T02:14:18;-10.10;99.90
4399;DHT22;2213;49.720;7.296;2022-12-18T02:16:58;-10.10;99.90
4399;DHT22;2213;49.720;7.296;2022-12-18T02:19:51;-10.10;99.90
4399;DHT22;2213;49.720;7.296;2022-12-18T02:22:37;-10.20;99.90
4399;DHT22;2213;49.720;7.296;2022-12-18T02:25:33;-10.10;99.90
4399;DHT22;2213;49.720;7.296;2022-12-18T02:28:20;-10.10;99.90
4399;DHT22;2213;49.720;7.296;2022-12-18T02:30:53;-10.10;99.90
4399;DHT22;2213;49.720;7.296;2022-12-18T02:33:30;-10.10;99.90
4399;DHT22;2213;49.720;7.296;2022-12-18T02:36:03;-10.10;99.90
4399;DHT22;2213;49.720;7.296;2022-12-18T02:38:35;-10.10;99.90
4399;DHT22;2213;49.720;7.296;2022-12-18T02:41:06;-10.10;99.90
4399;DHT22;2213;49.720;7.296;2022-12-18T02:43:39;-10.30;99.90
4399;DHT22;2213;49.720;7.296;2022-12-18T02:46:28;-10.30;99.90
4399;DHT22;2213;49.720;7.296;2022-12-18T02:49:21;-10.30;99.90
4399;DHT22;2213;49.720;7.296;2022-12-18T02:52:03;-10.30;99.90
4399;DHT22;2213;49.720;7.296;2022-12-18T02:54:54;-10.30;99.90
4399;DHT22;2213;49.720;7.296;2022-12-18T02:58:13;-10.30;99.90
4399;DHT22;2213;49.720;7.296;2022-12-18T03:00:52;-10.40;99.90
4399;DHT22;2213;49.720;7.296;2022-12-18T03:03:31;-10.30;99.90
4399;DHT22;2213;49.720;7.296;2022-12-18T03:06:10;-10.30;99.90
4399;DHT22;2213;49.720;7.296;2022-12-18T03:08:51;-10.30;99.90
4399;DHT22;2213;49.720;7.296;2022-12-18T03:11:52;-10.30;99.90
4399;DHT22;2213;49.720;7.296;2022-12-18T03:14:44;-10.30;99.90
4399;DHT22;2213;49.720;7.296;2022-12-18T03:17:20;-10.30;99.90
4399;DHT22;2213;49.720;7.296;2022-12-18T03:19:52;-10.30;99.90
4399;DHT22;2213;49.720;7.296;2022-12-18T03:22:30;-10.30;99.90
4399;DHT22;2213;49.720;7.296;2022-12-18T03:25:05;-10.40;99.90
4399;DHT22;2213;49.720;7.296;2022-12-18T03:27:42;-10.50;99.90
4399;DHT22;2213;49.720;7.296;2022-12-18T03:30:16;-10.50;99.90
4399;DHT22;2213;49.720;7.296;2022-12-18T03:32:53;-10.50;99.90
4399;DHT22;2213;49.720;7.296;2022-12-18T03:35:31;-10.40;99.90
4399;DHT22;2213;49.720;7.296;2022-12-18T03:38:09;-10.40;99.90
4399;DHT22;2213;49.720;7.296;2022-12-18T03:40:56;-10.40;99.90
4399;DHT22;2213;49.720;7.296;2022-12-18T03:43:39;-10.40;99.90
4399;DHT22;2213;49.720;7.296;2022-12-18T03:46:25;-10.40;99.90
4399;DHT22;2213;49.720;7.296;2022-12-18T03:49:05;-10.30;99.90
4399;DHT22;2213;49.720;7.296;2022-12-18T03:51:42;-10.30;99.90
4399;DHT22;2213;49.720;7.296;2022-12-18T03:54:19;-10.30;99.90
4399;DHT22;2213;49.720;7.296;2022-12-18T03:56:54;-10.20;99.90
4399;DHT22;2213;49.720;7.296;2022-12-18T03:59:29;-10.00;99.90
4399;DHT22;2213;49.720;7.296;2022-12-18T04:02:01;-10.10;99.90
4399;DHT22;2213;49.720;7.296;2022-12-18T04:04:36;-10.00;99.90
4399;DHT22;2213;49.720;7.296;2022-12-18T04:07:08;-10.00;99.90
4399;DHT22;2213;49.720;7.296;2022-12-18T04:09:39;-10.10;99.90
4399;DHT22;2213;49.720;7.296;2022-12-18T04:12:11;-10.10;99.90
4399;DHT22;2213;49.720;7.296;2022-12-18T04:14:40;-10.10;99.90
4399;DHT22;2213;49.720;7.296;2022-12-18T04:17:11;-10.20;99.90
4399;DHT22;2213;49.720;7.296;2022-12-18T04:19:42;-10.20;99.90
4399;DHT22;2213;49.720;7.296;2022-12-18T04:22:12;-10.20;99.90
4399;DHT22;2213;49.720;7.296;2022-12-18T04:24:42;-10.20;99.90
4399;DHT22;2213;49.720;7.296;2022-12-18T04:27:12;-10.20;99.90
4399;DHT22;2213;49.720;7.296;2022-12-18T04:29:41;-10.30;99.90
4399;DHT22;2213;49.720;7.296;2022-12-18T04:32:14;-10.20;99.90
4399;DHT22;2213;49.720;7.296;2022-12-18T04:34:47;-10.10;99.90
4399;DHT22;2213;49.720;7.296;2022-12-18T04:37:17;-10.10;99.90
4399;DHT22;2213;49.720;7.296;2022-12-18T04:39:46;-10.00;99.90
4399;DHT22;2213;49.720;7.296;2022-12-18T04:42:16;-10.10;99.90
4399;DHT22;2213;49.720;7.296;2022-12-18T04:44:46;-10.10;99.90
4399;DHT22;2213;49.720;7.296;2022-12-18T04:47:17;-10.10;99.90
4399;DHT22;2213;49.720;7.296;2022-12-18T04:49:47;-10.00;99.90
4399;DHT22;2213;49.720;7.296;2022-12-18T04:52:18;-10.10;99.90
4399;DHT22;2213;49.720;7.296;2022-12-18T04:54:53;-10.00;99.90
4399;DHT22;2213;49.720;7.296;2022-12-18T04:57:22;-10.00;99.90
4399;DHT22;2213;49.720;7.296;2022-12-18T04:59:53;-10.00;99.90
4399;DHT22;2213;49.720;7.296;2022-12-18T05:02:22;-10.00;99.90
4399;DHT22;2213;49.720;7.296;2022-12-18T05:04:53;-10.00;99.90
4399;DHT22;2213;49.720;7.296;2022-12-18T05:07:23;-10.00;99.90
4399;DHT22;2213;49.720;7.296;2022-12-18T05:09:53;-10.00;99.90
4399;DHT22;2213;49.720;7.296;2022-12-18T05:12:23;-9.90;99.90
4399;DHT22;2213;49.720;7.296;2022-12-18T05:14:52;-9.90;99.90
4399;DHT22;2213;49.720;7.296;2022-12-18T05:17:22;-9.80;99.90
4399;DHT22;2213;49.720;7.296;2022-12-18T05:19:51;-9.70;99.90
4399;DHT22;2213;49.720;7.296;2022-12-18T05:22:21;-9.70;99.90
4399;DHT22;2213;49.720;7.296;2022-12-18T05:24:52;-9.60;99.90
4399;DHT22;2213;49.720;7.296;2022-12-18T05:27:22;-9.70;99.90
4399;DHT22;2213;49.720;7.296;2022-12-18T05:29:53;-9.60;99.90
4399;DHT22;2213;49.720;7.296;2022-12-18T05:32:24;-9.50;99.90
4399;DHT22;2213;49.720;7.296;2022-12-18T05:34:54;-9.60;99.90
4399;DHT22;2213;49.720;7.296;2022-12-18T05:37:25;-9.60;99.90
4399;DHT22;2213;49.720;7.296;2022-12-18T05:39:54;-9.50;99.90
4399;DHT22;2213;49.720;7.296;2022-12-18T05:42:24;-9.50;99.90
4399;DHT22;2213;49.720;7.296;2022-12-18T05:44:54;-9.50;99.90
4399;DHT22;2213;49.720;7.296;2022-12-18T05:47:23;-9.50;99.90
4399;DHT22;2213;49.720;7.296;2022-12-18T05:49:55;-9.50;99.90
4399;DHT22;2213;49.720;7.296;2022-12-18T05:52:25;-9.50;99.90
4399;DHT22;2213;49.720;7.296;2022-12-18T05:54:54;-9.50;99.90
4399;DHT22;2213;49.720;7.296;2022-12-18T05:57:27;-9.60;99.90
4399;DHT22;2213;49.720;7.296;2022-12-18T05:59:57;-9.60;99.90
4399;DHT22;2213;49.720;7.296;2022-12-18T06:02:27;-9.60;99.90
4399;DHT22;2213;49.720;7.296;2022-12-18T06:04:58;-9.60;99.90
4399;DHT22;2213;49.720;7.296;2022-12-18T06:07:29;-9.60;99.90
4399;DHT22;2213;49.720;7.296;2022-12-18T06:10:00;-9.60;99.90
4399;DHT22;2213;49.720;7.296;2022-12-18T06:12:30;-9.60;99.90
4399;DHT22;2213;49.720;7.296;2022-12-18T06:15:01;-9.70;99.90
4399;DHT22;2213;49.720;7.296;2022-12-18T06:17:31;-9.50;99.90
4399;DHT22;2213;49.720;7.296;2022-12-18T06:20:02;-9.50;99.90
4399;DHT22;2213;49.720;7.296;2022-12-18T06:22:34;-9.50;99.90
4399;DHT22;2213;49.720;7.296;2022-12-18T06:25:07;-9.30;99.90
4399;DHT22;2213;49.720;7.296;2022-12-18T06:27:37;-9.30;99.90
4399;DHT22;2213;49.720;7.296;2022-12-18T06:30:10;-9.50;99.90
4399;DHT22;2213;49.720;7.296;2022-12-18T06:32:43;-9.50;99.90
4399;DHT22;2213;49.720;7.296;2022-12-18T06:35:24;-9.60;99.90
4399;DHT22;2213;49.720;7.296;2022-12-18T06:37:53;-9.70;99.90
4399;DHT22;2213;49.720;7.296;2022-12-18T06:40:23;-9.60;99.90
4399;DHT22;2213;49.720;7.296;2022-12-18T06:42:53;-9.60;99.90
4399;DHT22;2213;49.720;7.296;2022-12-18T06:45:22;-9.60;99.90
4399;DHT22;2213;49.720;7.296;2022-12-18T06:47:53;-9.70;99.90
4399;DHT22;2213;49.720;7.296;2022-12-18T06:50:26;-9.70;99.90
4399;DHT22;2213;49.720;7.296;2022-12-18T06:52:56;-9.60;99.90
4399;DHT22;2213;49.720;7.296;2022-12-18T06:55:27;-9.50;99.90
4399;DHT22;2213;49.720;7.296;2022-12-18T06:57:58;-9.60;99.90
4399;DHT22;2213;49.720;7.296;2022-12-18T07:00:27;-9.60;99.90
4399;DHT22;2213;49.720;7.296;2022-12-18T07:02:57;-9.50;99.90
4399;DHT22;2213;49.720;7.296;2022-12-18T07:05:28;-9.60;99.90
4399;DHT22;2213;49.720;7.296;2022-12-18T07:07:58;-9.50;99.90
4399;DHT22;2213;49.720;7.296;2022-12-18T07:10:28;-9.50;99.90
4399;DHT22;2213;49.720;7.296;2022-12-18T07:12:58;-9.50;99.90
4399;DHT22;2213;49.720;7.296;2022-12-18T07:15:27;-9.60;99.90
4399;DHT22;2213;49.720;7.296;2022-12-18T07:17:58;-9.40;99.90
4399;DHT22;2213;49.720;7.296;2022-12-18T07:20:29;-9.60;99.90
4399;DHT22;2213;49.720;7.296;2022-12-18T07:23:01;-9.40;99.90
4399;DHT22;2213;49.720;7.296;2022-12-18T07:25:34;-9.40;99.90
4399;DHT22;2213;49.720;7.296;2022-12-18T07:28:04;-9.40;99.90
4399;DHT22;2213;49.720;7.296;2022-12-18T07:30:37;-9.30;99.90
4399;DHT22;2213;49.720;7.296;2022-12-18T07:33:11;-9.30;99.90
4399;DHT22;2213;49.720;7.296;2022-12-18T07:35:45;-9.30;99.90
4399;DHT22;2213;49.720;7.296;2022-12-18T07:38:14;-9.40;99.90
4399;DHT22;2213;49.720;7.296;2022-12-18T07:40:45;-9.40;99.90
4399;DHT22;2213;49.720;7.296;2022-12-18T07:43:14;-9.40;99.90
4399;DHT22;2213;49.720;7.296;2022-12-18T07:45:48;-9.30;99.90
4399;DHT22;2213;49.720;7.296;2022-12-18T07:48:18;-9.30;99.90
4399;DHT22;2213;49.720;7.296;2022-12-18T07:50:49;-9.30;99.90
4399;DHT22;2213;49.720;7.296;2022-12-18T07:53:18;-9.30;99.90
4399;DHT22;2213;49.720;7.296;2022-12-18T07:55:48;-9.40;99.90
4399;DHT22;2213;49.720;7.296;2022-12-18T07:58:44;-9.20;99.90
4399;DHT22;2213;49.720;7.296;2022-12-18T08:01:14;-9.10;99.90
4399;DHT22;2213;49.720;7.296;2022-12-18T08:03:45;-9.20;99.90
4399;DHT22;2213;49.720;7.296;2022-12-18T08:06:18;-9.10;99.90
4399;DHT22;2213;49.720;7.296;2022-12-18T08:08:52;-9.00;99.90
4399;DHT22;2213;49.720;7.296;2022-12-18T08:11:22;-9.00;99.90
4399;DHT22;2213;49.720;7.296;2022-12-18T08:13:53;-9.00;99.90
4399;DHT22;2213;49.720;7.296;2022-12-18T08:16:23;-9.00;99.90
4399;DHT22;2213;49.720;7.296;2022-12-18T08:18:54;-9.00;99.90
4399;DHT22;2213;49.720;7.296;2022-12-18T08:21:28;-8.90;99.90
4399;DHT22;2213;49.720;7.296;2022-12-18T08:23:59;-8.80;99.90
4399;DHT22;2213;49.720;7.296;2022-12-18T08:26:30;-8.80;99.90
4399;DHT22;2213;49.720;7.296;2022-12-18T08:29:01;-8.90;99.90
4399;DHT22;2213;49.720;7.296;2022-12-18T08:31:31;-8.80;99.90
4399;DHT22;2213;49.720;7.296;2022-12-18T08:34:01;-8.80;99.90
4399;DHT22;2213;49.720;7.296;2022-12-18T08:36:32;-8.70;99.90
4399;DHT22;2213;49.720;7.296;2022-12-18T08:39:02;-8.70;99.90
4399;DHT22;2213;49.720;7.296;2022-12-18T08:41:33;-8.60;99.90
4399;DHT22;2213;49.720;7.296;2022-12-18T08:44:04;-8.60;99.90
4399;DHT22;2213;49.720;7.296;2022-12-18T08:46:53;-8.50;99.90
4399;DHT22;2213;49.720;7.296;2022-12-18T08:49:23;-8.40;99.90
4399;DHT22;2213;49.720;7.296;2022-12-18T08:51:56;-8.40;99.90
4399;DHT22;2213;49.720;7.296;2022-12-18T08:54:27;-8.40;99.90
4399;DHT22;2213;49.720;7.296;2022-12-18T08:56:58;-8.30;99.90
4399;DHT22;2213;49.720;7.296;2022-12-18T08:59:28;-8.30;99.90
4399;DHT22;2213;49.720;7.296;2022-12-18T09:01:59;-8.20;99.90
4399;DHT22;2213;49.720;7.296;2022-12-18T09:04:31;-8.20;99.90
4399;DHT22;2213;49.720;7.296;2022-12-18T09:07:03;-8.20;99.90
4399;DHT22;2213;49.720;7.296;2022-12-18T09:09:33;-8.20;99.90
4399;DHT22;2213;49.720;7.296;2022-12-18T09:12:03;-8.10;99.90
4399;DHT22;2213;49.720;7.296;2022-12-18T09:14:33;-8.10;99.90
4399;DHT22;2213;49.720;7.296;2022-12-18T09:17:03;-8.00;99.90
4399;DHT22;2213;49.720;7.296;2022-12-18T09:19:33;-8.00;99.90
4399;DHT22;2213;49.720;7.296;2022-12-18T09:22:05;-7.90;99.90
4399;DHT22;2213;49.720;7.296;2022-12-18T09:24:35;-7.80;99.90
4399;DHT22;2213;49.720;7.296;2022-12-18T09:27:06;-7.70;99.90
4399;DHT22;2213;49.720;7.296;2022-12-18T09:29:37;-7.70;99.90
4399;DHT22;2213;49.720;7.296;2022-12-18T09:32:06;-7.70;99.90
4399;DHT22;2213;49.720;7.296;2022-12-18T09:34:36;-7.60;99.90
4399;DHT22;2213;49.720;7.296;2022-12-18T09:37:08;-7.50;99.90
4399;DHT22;2213;49.720;7.296;2022-12-18T09:39:38;-7.40;99.90
4399;DHT22;2213;49.720;7.296;2022-12-18T09:42:17;-7.30;99.90
4399;DHT22;2213;49.720;7.296;2022-12-18T09:44:52;-7.40;99.90
4399;DHT22;2213;49.720;7.296;2022-12-18T09:47:25;-7.30;99.90
4399;DHT22;2213;49.720;7.296;2022-12-18T09:50:01;-7.20;99.90
4399;DHT22;2213;49.720;7.296;2022-12-18T09:52:48;-7.20;99.90
4399;DHT22;2213;49.720;7.296;2022-12-18T09:55:24;-7.20;99.90
4399;DHT22;2213;49.720;7.296;2022-12-18T09:58:05;-7.00;99.90
4399;DHT22;2213;49.720;7.296;2022-12-18T10:00:43;-7.00;99.90
4399;DHT22;2213;49.720;7.296;2022-12-18T10:03:15;-6.90;99.90
4399;DHT22;2213;49.720;7.296;2022-12-18T10:05:53;-6.90;99.90
4399;DHT22;2213;49.720;7.296;2022-12-18T10:08:41;-6.90;99.90
4399;DHT22;2213;49.720;7.296;2022-12-18T10:11:32;-6.90;99.90
4399;DHT22;2213;49.720;7.296;2022-12-18T10:14:14;-6.80;99.90
4399;DHT22;2213;49.720;7.296;2022-12-18T10:16:58;-6.70;99.90
4399;DHT22;2213;49.720;7.296;2022-12-18T10:19:40;-6.60;99.90
4399;DHT22;2213;49.720;7.296;2022-12-18T10:22:34;-6.60;99.90
4399;DHT22;2213;49.720;7.296;2022-12-18T10:25:23;-6.60;99.90
4399;DHT22;2213;49.720;7.296;2022-12-18T10:27:57;-6.40;99.90
4399;DHT22;2213;49.720;7.296;2022-12-18T10:30:36;-6.40;99.90
4399;DHT22;2213;49.720;7.296;2022-12-18T10:33:11;-6.40;99.90
4399;DHT22;2213;49.720;7.296;2022-12-18T10:35:44;-6.30;99.90
4399;DHT22;2213;49.720;7.296;2022-12-18T10:38:26;-6.20;99.90
4399;DHT22;2213;49.720;7.296;2022-12-18T10:41:00;-6.30;99.90
4399;DHT22;2213;49.720;7.296;2022-12-18T10:43:31;-6.20;99.90
4399;DHT22;2213;49.720;7.296;2022-12-18T10:46:11;-6.20;99.90
4399;DHT22;2213;49.720;7.296;2022-12-18T10:48:52;-6.30;99.90
4399;DHT22;2213;49.720;7.296;2022-12-18T10:51:25;-6.20;99.90
4399;DHT22;2213;49.720;7.296;2022-12-18T10:54:00;-6.10;99.90
4399;DHT22;2213;49.720;7.296;2022-12-18T10:56:38;-6.10;99.90
4399;DHT22;2213;49.720;7.296;2022-12-18T10:59:11;-6.00;99.90
4399;DHT22;2213;49.720;7.296;2022-12-18T11:01:47;-6.00;99.90
4399;DHT22;2213;49.720;7.296;2022-12-18T11:04:21;-6.10;99.90
4399;DHT22;2213;49.720;7.296;2022-12-18T11:06:59;-6.10;99.90
4399;DHT22;2213;49.720;7.296;2022-12-18T11:09:31;-6.10;99.90
4399;DHT22;2213;49.720;7.296;2022-12-18T11:12:14;-6.10;99.90
4399;DHT22;2213;49.720;7.296;2022-12-18T11:14:47;-6.10;99.90
4399;DHT22;2213;49.720;7.296;2022-12-18T11:17:21;-5.90;99.90
4399;DHT22;2213;49.720;7.296;2022-12-18T11:19:54;-5.90;99.90
4399;DHT22;2213;49.720;7.296;2022-12-18T11:22:27;-5.90;99.90
4399;DHT22;2213;49.720;7.296;2022-12-18T11:25:00;-5.90;99.90
4399;DHT22;2213;49.720;7.296;2022-12-18T11:27:56;-5.90;99.90
4399;DHT22;2213;49.720;7.296;2022-12-18T11:30:29;-5.90;99.90
4399;DHT22;2213;49.720;7.296;2022-12-18T11:33:03;-5.80;99.90
4399;DHT22;2213;49.720;7.296;2022-12-18T11:35:40;-5.80;99.90
4399;DHT22;2213;49.720;7.296;2022-12-18T11:38:19;-5.70;99.90
4399;DHT22;2213;49.720;7.296;2022-12-18T11:40:56;-5.60;99.90
4399;DHT22;2213;49.720;7.296;2022-12-18T11:43:38;-5.60;99.90
4399;DHT22;2213;49.720;7.296;2022-12-18T11:46:15;-5.60;99.90
4399;DHT22;2213;49.720;7.296;2022-12-18T11:48:52;-5.70;99.90
4399;DHT22;2213;49.720;7.296;2022-12-18T11:51:32;-5.60;99.90
4399;DHT22;2213;49.720;7.296;2022-12-18T11:54:10;-5.70;99.90
4399;DHT22;2213;49.720;7.296;2022-12-18T11:56:45;-5.50;99.90
4399;DHT22;2213;49.720;7.296;2022-12-18T11:59:28;-5.40;99.90
4399;DHT22;2213;49.720;7.296;2022-12-18T12:02:16;-5.30;99.90
4399;DHT22;2213;49.720;7.296;2022-12-18T12:05:14;-5.30;99.90
4399;DHT22;2213;49.720;7.296;2022-12-18T12:07:59;-5.20;99.90
4399;DHT22;2213;49.720;7.296;2022-12-18T12:10:46;-5.20;99.90
4399;DHT22;2213;49.720;7.296;2022-12-18T12:13:30;-5.20;99.90
4399;DHT22;2213;49.720;7.296;2022-12-18T12:16:24;-5.20;99.90
4399;DHT22;2213;49.720;7.296;2022-12-18T12:19:10;-5.20;99.90
4399;DHT22;2213;49.720;7.296;2022-12-18T12:22:00;-5.10;99.90
4399;DHT22;2213;49.720;7.296;2022-12-18T12:24:52;-5.10;99.90
4399;DHT22;2213;49.720;7.296;2022-12-18T12:27:35;-5.10;99.90
4399;DHT22;2213;49.720;7.296;2022-12-18T12:30:18;-5.10;99.90
4399;DHT22;2213;49.720;7.296;2022-12-18T12:33:03;-5.10;99.90
4399;DHT22;2213;49.720;7.296;2022-12-18T12:35:49;-5.00;99.90
4399;DHT22;2213;49.720;7.296;2022-12-18T12:38:28;-5.00;99.90
4399;DHT22;2213;49.720;7.296;2022-12-18T12:41:04;-5.00;99.90
4399;DHT22;2213;49.720;7.296;2022-12-18T12:43:59;-5.10;99.90
4399;DHT22;2213;49.720;7.296;2022-12-18T12:46:36;-5.00;99.90
4399;DHT22;2213;49.720;7.296;2022-12-18T12:49:13;-4.90;99.90
4399;DHT22;2213;49.720;7.296;2022-12-18T12:51:49;-5.00;99.90
4399;DHT22;2213;49.720;7.296;2022-12-18T12:54:26;-5.00;99.90
4399;DHT22;2213;49.720;7.296;2022-12-18T12:57:00;-5.00;99.90
4399;DHT22;2213;49.720;7.296;2022-12-18T12:59:39;-5.00;99.90
4399;DHT22;2213;49.720;7.296;2022-12-18T13:02:22;-5.00;99.90
4399;DHT22;2213;49.720;7.296;2022-12-18T13:05:02;-4.90;99.90
4399;DHT22;2213;49.720;7.296;2022-12-18T13:07:41;-4.80;99.90
4399;DHT22;2213;49.720;7.296;2022-12-18T13:10:42;-4.80;99.90
4399;DHT22;2213;49.720;7.296;2022-12-18T13:13:14;-4.80;99.90
4399;DHT22;2213;49.720;7.296;2022-12-18T13:16:05;-4.90;99.90
4399;DHT22;2213;49.720;7.296;2022-12-18T13:18:38;-4.90;99.90
4399;DHT22;2213;49.720;7.296;2022-12-18T13:21:21;-4.80;99.90
4399;DHT22;2213;49.720;7.296;2022-12-18T13:23:54;-4.90;99.90
4399;DHT22;2213;49.720;7.296;2022-12-18T13:26:32;-4.80;99.90
4399;DHT22;2213;49.720;7.296;2022-12-18T13:29:03;-4.80;99.90
4399;DHT22;2213;49.720;7.296;2022-12-18T13:32:18;-4.80;99.90
4399;DHT22;2213;49.720;7.296;2022-12-18T13:35:39;-4.80;99.90
4399;DHT22;2213;49.720;7.296;2022-12-18T13:38:23;-4.70;99.90
4399;DHT22;2213;49.720;7.296;2022-12-18T13:41:15;-4.70;99.90
4399;DHT22;2213;49.720;7.296;2022-12-18T13:43:54;-4.70;99.90
4399;DHT22;2213;49.720;7.296;2022-12-18T13:46:43;-4.70;99.90
4399;DHT22;2213;49.720;7.296;2022-12-18T13:49:22;-4.80;99.90
4399;DHT22;2213;49.720;7.296;2022-12-18T13:51:55;-4.70;99.90
4399;DHT22;2213;49.720;7.296;2022-12-18T13:54:30;-4.70;99.90
4399;DHT22;2213;49.720;7.296;2022-12-18T13:57:05;-4.60;99.90
4399;DHT22;2213;49.720;7.296;2022-12-18T13:59:55;-4.70;99.90
4399;DHT22;2213;49.720;7.296;2022-12-18T14:02:26;-4.70;99.90
4399;DHT22;2213;49.720;7.296;2022-12-18T14:04:56;-4.80;99.90
4399;DHT22;2213;49.720;7.296;2022-12-18T14:07:29;-4.70;99.90
4399;DHT22;2213;49.720;7.296;2022-12-18T14:10:14;-4.70;99.90
4399;DHT22;2213;49.720;7.296;2022-12-18T14:13:08;-4.80;99.90
4399;DHT22;2213;49.720;7.296;2022-12-18T14:15:41;-4.70;99.90
4399;DHT22;2213;49.720;7.296;2022-12-18T14:18:20;-4.80;99.90
4399;DHT22;2213;49.720;7.296;2022-12-18T14:20:55;-4.70;99.90
4399;DHT22;2213;49.720;7.296;2022-12-18T14:23:30;-4.70;99.90
4399;DHT22;2213;49.720;7.296;2022-12-18T14:26:02;-4.70;99.90
4399;DHT22;2213;49.720;7.296;2022-12-18T14:28:49;-4.70;99.90
4399;DHT22;2213;49.720;7.296;2022-12-18T14:31:22;-4.70;99.90
4399;DHT22;2213;49.720;7.296;2022-12-18T14:33:54;-4.70;99.90
4399;DHT22;2213;49.720;7.296;2022-12-18T14:36:25;-4.80;99.90
4399;DHT22;2213;49.720;7.296;2022-12-18T14:38:57;-4.70;99.90
4399;DHT22;2213;49.720;7.296;2022-12-18T14:41:29;-4.80;99.90
4399;DHT22;2213;49.720;7.296;2022-12-18T14:44:07;-4.70;99.90
4399;DHT22;2213;49.720;7.296;2022-12-18T14:46:43;-4.70;99.90
4399;DHT22;2213;49.720;7.296;2022-12-18T14:49:23;-4.70;99.90
4399;DHT22;2213;49.720;7.296;2022-12-18T14:51:57;-4.70;99.90
4399;DHT22;2213;49.720;7.296;2022-12-18T14:54:30;-4.70;99.90
4399;DHT22;2213;49.720;7.296;2022-12-18T14:57:03;-4.70;99.90
4399;DHT22;2213;49.720;7.296;2022-12-18T14:59:36;-4.80;99.90
4399;DHT22;2213;49.720;7.296;2022-12-18T15:02:13;-4.60;99.90
4399;DHT22;2213;49.720;7.296;2022-12-18T15:05:00;-4.70;99.90
4399;DHT22;2213;49.720;7.296;2022-12-18T15:07:41;-4.70;99.90
4399;DHT22;2213;49.720;7.296;2022-12-18T15:10:13;-4.80;99.90
4399;DHT22;2213;49.720;7.296;2022-12-18T15:12:47;-4.80;99.90
4399;DHT22;2213;49.720;7.296;2022-12-18T15:15:44;-4.70;99.90
4399;DHT22;2213;49.720;7.296;2022-12-18T15:18:17;-4.70;99.90
4399;DHT22;2213;49.720;7.296;2022-12-18T15:20:52;-4.70;99.90
4399;DHT22;2213;49.720;7.296;2022-12-18T15:23:26;-4.70;99.90
4399;DHT22;2213;49.720;7.296;2022-12-18T15:26:00;-4.70;99.90
4399;DHT22;2213;49.720;7.296;2022-12-18T15:28:37;-4.60;99.90
4399;DHT22;2213;49.720;7.296;2022-12-18T15:31:39;-4.70;99.90
4399;DHT22;2213;49.720;7.296;2022-12-18T15:34:18;-4.70;99.90
4399;DHT22;2213;49.720;7.296;2022-12-18T15:36:50;-4.70;99.90
4399;DHT22;2213;49.720;7.296;2022-12-18T15:39:19;-4.70;99.90
4399;DHT22;2213;49.720;7.296;2022-12-18T15:41:49;-4.70;99.90
4399;DHT22;2213;49.720;7.296;2022-12-18T15:44:37;-4.80;99.90
4399;DHT22;2213;49.720;7.296;2022-12-18T15:47:11;-4.80;99.90
4399;DHT22;2213;49.720;7.296;2022-12-18T15:49:41;-4.80;99.90
4399;DHT22;2213;49.720;7.296;2022-12-18T15:52:13;-4.80;99.90
4399;DHT22;2213;49.720;7.296;2022-12-18T15:54:53;-4.80;99.90
4399;DHT22;2213;49.720;7.296;2022-12-18T15:57:41;-4.80;99.90
4399;DHT22;2213;49.720;7.296;2022-12-18T16:00:14;-4.60;99.90
4399;DHT22;2213;49.720;7.296;2022-12-18T16:02:44;-4.80;99.90
4399;DHT22;2213;49.720;7.296;2022-12-18T16:05:15;-4.80;99.90
4399;DHT22;2213;49.720;7.296;2022-12-18T16:07:46;-4.70;99.90
4399;DHT22;2213;49.720;7.296;2022-12-18T16:10:17;-4.90;99.90
4399;DHT22;2213;49.720;7.296;2022-12-18T16:12:46;-4.90;99.90
4399;DHT22;2213;49.720;7.296;2022-12-18T16:15:17;-4.90;99.90
4399;DHT22;2213;49.720;7.296;2022-12-18T16:17:51;-4.90;99.90
4399;DHT22;2213;49.720;7.296;2022-12-18T16:20:22;-4.90;99.90
4399;DHT22;2213;49.720;7.296;2022-12-18T16:22:52;-4.90;99.90
4399;DHT22;2213;49.720;7.296;2022-12-18T16:25:24;-4.90;99.90
4399;DHT22;2213;49.720;7.296;2022-12-18T16:27:55;-4.90;99.90
4399;DHT22;2213;49.720;7.296;2022-12-18T16:30:28;-4.90;99.90
4399;DHT22;2213;49.720;7.296;2022-12-18T16:33:05;-4.90;99.90
4399;DHT22;2213;49.720;7.296;2022-12-18T16:35:34;-5.00;99.90
4399;DHT22;2213;49.720;7.296;2022-12-18T16:38:04;-4.90;99.90
4399;DHT22;2213;49.720;7.296;2022-12-18T16:40:35;-4.90;99.90
4399;DHT22;2213;49.720;7.296;2022-12-18T16:43:24;-4.90;99.90
4399;DHT22;2213;49.720;7.296;2022-12-18T16:45:58;-4.90;99.90
4399;DHT22;2213;49.720;7.296;2022-12-18T16:48:28;-5.00;99.90
4399;DHT22;2213;49.720;7.296;2022-12-18T16:51:00;-5.00;99.90
4399;DHT22;2213;49.720;7.296;2022-12-18T16:53:32;-5.00;99.90